Weather at John F Kennedy International Airport

Public forecast

Using degrees Fahrenheit for public forecast. Weather courtesy of forecast.io.

Current aviation weather report (METAR) for John F Kennedy International Airport

Retrieved 2021/01/22 20:51 UTC (55 minutes ago):

KJFK 222051Z 28012KT 10SM FEW055 SCT090 07/M07 A2975 RMK AO2 SLP075 VIRGA NW T00721072 53015

Aviation forecast (TAF) for John F Kennedy International Airport

Retrieved 2021/01/22 18:34 UTC (3 hours ago):

TAF KJFK 221732Z 2218/2324 28020G25KT P6SM SCT040 SCT100 FM230000 29011G19KT P6SM VCSH SCT020 FM230400 30015G22KT P6SM SCT020 SCT040 SCT100 FM231300 31020G29KT P6SM SCT040 SCT080 FM231600 31022G32KT P6SM SCT010 SCT040